Time;durP1;ratioP1;P1;durP2;ratioP2;P2;SDS_P1;SDS_P2;PMS_P1;PMS_P2;Temp;Humidity;BMP_temperature;BMP_pressure;BME280_temperature;BME280_humidity;BME280_pressure;Samples;Min_cycle;Max_cycle;Signal;HPM_P1;HPM_P2
2024/05/04 00:01:11;;;;;;;4.80;3.87;;;12.80;99.90;;;;;;5414444;26;20253;-82
2024/05/04 00:03:37;;;;;;;7.63;4.07;;;12.80;99.90;;;;;;5444981;26;20237;-81
2024/05/04 00:06:03;;;;;;;7.20;4.33;;;12.90;99.90;;;;;;5413477;26;20245;-81
2024/05/04 00:08:32;;;;;;;7.07;4.37;;;12.80;99.90;;;;;;5449523;26;20521;-81
2024/05/04 00:10:58;;;;;;;5.17;4.13;;;12.80;99.90;;;;;;5447784;26;20299;-81
2024/05/04 00:13:23;;;;;;;6.33;3.67;;;12.80;99.90;;;;;;5450180;26;20229;-81
2024/05/04 00:15:49;;;;;;;6.07;4.17;;;12.90;99.90;;;;;;5448275;26;20241;-81
2024/05/04 00:18:15;;;;;;;11.77;5.13;;;12.90;99.90;;;;;;5444852;26;20275;-80
2024/05/04 00:20:40;;;;;;;8.73;4.23;;;12.90;99.90;;;;;;5448261;26;20345;-80
2024/05/04 00:23:06;;;;;;;6.77;4.60;;;12.90;99.90;;;;;;5446247;26;20312;-82
2024/05/04 00:25:32;;;;;;;7.83;4.63;;;12.80;99.90;;;;;;5411648;26;20249;-81
2024/05/04 00:27:57;;;;;;;5.60;4.00;;;12.70;99.90;;;;;;5439590;26;20309;-81
2024/05/04 00:30:23;;;;;;;12.37;4.33;;;12.70;99.90;;;;;;5411449;26;20258;-81
2024/05/04 00:32:48;;;;;;;6.53;4.00;;;12.80;99.90;;;;;;5445544;26;20514;-80
2024/05/04 00:35:14;;;;;;;5.53;4.13;;;12.70;99.90;;;;;;5449168;26;20240;-80
2024/05/04 00:37:40;;;;;;;12.30;4.23;;;12.60;99.90;;;;;;5447236;26;20244;-80
2024/05/04 00:40:07;;;;;;;10.67;4.50;;;12.60;99.90;;;;;;5424485;26;20708;-80
2024/05/04 00:42:32;;;;;;;10.13;4.40;;;12.60;99.90;;;;;;5447444;26;20230;-79
2024/05/04 00:44:58;;;;;;;7.80;3.77;;;12.60;99.90;;;;;;5445562;26;20237;-79
2024/05/04 00:47:24;;;;;;;6.27;4.03;;;12.50;99.90;;;;;;5449078;26;20292;-80
2024/05/04 00:49:52;;;;;;;8.30;3.90;;;12.50;99.90;;;;;;5448357;26;20275;-79
2024/05/04 00:52:19;;;;;;;8.10;3.97;;;12.50;99.90;;;;;;5447006;26;20244;-79
2024/05/04 00:54:45;;;;;;;7.53;4.17;;;12.40;99.90;;;;;;5419737;26;20256;-82
2024/05/04 00:57:11;;;;;;;7.53;3.97;;;12.40;99.90;;;;;;5449287;26;20324;-80
2024/05/04 00:59:37;;;;;;;4.13;3.73;;;12.40;99.90;;;;;;5448268;26;20284;-80
2024/05/04 01:02:04;;;;;;;8.33;4.23;;;12.60;99.90;;;;;;5446724;26;20275;-81
2024/05/04 01:04:30;;;;;;;7.13;4.10;;;12.50;99.90;;;;;;5410951;26;20585;-81
2024/05/04 01:06:56;;;;;;;5.13;4.13;;;12.60;99.90;;;;;;5445838;26;20287;-81
2024/05/04 01:09:21;;;;;;;7.97;4.20;;;12.50;99.90;;;;;;5447227;26;20240;-79
2024/05/04 01:11:47;;;;;;;7.73;3.70;;;12.50;99.90;;;;;;5429569;26;20300;-81
2024/05/04 01:14:12;;;;;;;9.73;4.87;;;12.50;99.90;;;;;;5410025;26;20566;-82
2024/05/04 01:16:38;;;;;;;4.73;3.80;;;12.50;99.90;;;;;;5447079;26;20357;-80
2024/05/04 01:19:04;;;;;;;5.00;3.80;;;12.50;99.90;;;;;;5446723;26;20236;-82
2024/05/04 01:21:29;;;;;;;4.97;3.80;;;12.50;99.90;;;;;;5448072;26;20232;-79
2024/05/04 01:23:55;;;;;;;10.30;3.73;;;12.50;99.90;;;;;;5446935;26;20290;-78
2024/05/04 01:26:21;;;;;;;4.33;3.50;;;12.40;99.90;;;;;;5446736;26;20610;-79
2024/05/04 01:28:46;;;;;;;8.10;3.90;;;12.40;99.90;;;;;;5448105;26;20248;-80
2024/05/04 01:31:12;;;;;;;6.60;3.20;;;12.40;99.90;;;;;;5448485;26;20247;-81
2024/05/04 01:33:37;;;;;;;7.70;4.47;;;12.40;99.90;;;;;;5445993;26;20614;-81
2024/05/04 01:36:03;;;;;;;5.57;3.50;;;12.40;99.90;;;;;;5448426;26;20286;-81
2024/05/04 01:38:29;;;;;;;5.27;3.80;;;12.40;99.90;;;;;;5447812;26;20248;-82
2024/05/04 01:40:56;;;;;;;5.50;3.47;;;12.40;99.90;;;;;;5448020;26;20574;-80
2024/05/04 01:43:21;;;;;;;9.13;3.80;;;12.40;99.90;;;;;;5445686;26;20599;-80
2024/05/04 01:45:47;;;;;;;6.50;3.43;;;12.40;99.90;;;;;;5443537;26;20221;-79
2024/05/04 01:48:13;;;;;;;3.60;2.80;;;12.50;99.90;;;;;;5446178;26;20237;-80
2024/05/04 01:50:38;;;;;;;6.73;3.20;;;12.50;99.90;;;;;;5446001;26;20586;-81
2024/05/04 01:53:04;;;;;;;4.70;3.17;;;12.40;99.90;;;;;;5411800;26;20249;-81
2024/05/04 01:55:30;;;;;;;7.63;3.10;;;12.50;99.90;;;;;;5444644;26;20237;-81
2024/05/04 01:57:56;;;;;;;5.87;3.63;;;12.40;99.90;;;;;;5448460;26;20959;-81
2024/05/04 02:00:22;;;;;;;5.90;3.23;;;12.40;99.90;;;;;;5445991;26;20249;-81
2024/05/04 02:02:47;;;;;;;5.80;3.47;;;12.30;99.90;;;;;;5447457;26;20232;-80
2024/05/04 02:05:13;;;;;;;3.40;3.07;;;12.40;99.90;;;;;;5445584;26;20248;-79
2024/05/04 02:07:38;;;;;;;5.77;3.10;;;12.30;99.90;;;;;;5447953;26;20292;-80
2024/05/04 02:10:05;;;;;;;4.43;3.40;;;12.30;99.90;;;;;;5445576;26;20274;-81
2024/05/04 02:12:30;;;;;;;8.77;3.23;;;12.20;99.90;;;;;;5445944;26;20893;-79
2024/05/04 02:14:55;;;;;;;6.70;3.40;;;12.20;99.90;;;;;;5428171;26;20338;-81
2024/05/04 02:17:21;;;;;;;3.10;2.80;;;12.20;99.90;;;;;;5445719;26;20243;-82
2024/05/04 02:19:47;;;;;;;5.27;3.43;;;12.20;99.90;;;;;;5446638;26;20250;-82
2024/05/04 02:22:15;;;;;;;6.40;3.50;;;12.30;99.90;;;;;;5446440;26;20843;-80
2024/05/04 02:24:40;;;;;;;6.83;3.90;;;12.20;99.90;;;;;;5410945;26;20271;-81
2024/05/04 02:27:06;;;;;;;5.23;3.00;;;12.20;99.90;;;;;;5410169;26;20241;-81
2024/05/04 02:29:33;;;;;;;4.50;3.03;;;12.10;99.90;;;;;;5408897;26;20634;-80
2024/05/04 02:31:58;;;;;;;4.77;3.17;;;12.00;99.90;;;;;;5446573;26;20238;-81
2024/05/04 02:34:24;;;;;;;5.20;3.27;;;12.10;99.90;;;;;;5411479;26;20703;-81
2024/05/04 02:36:50;;;;;;;3.93;2.80;;;12.00;99.90;;;;;;5414922;26;21163;-81
2024/05/04 02:39:16;;;;;;;3.77;3.17;;;12.10;99.90;;;;;;5456570;26;20272;-81
2024/05/04 02:41:42;;;;;;;4.23;3.30;;;12.00;99.90;;;;;;5453881;26;20248;-81
2024/05/04 02:44:08;;;;;;;7.70;3.63;;;12.00;99.90;;;;;;5412461;26;20677;-81
2024/05/04 02:46:33;;;;;;;6.80;3.10;;;12.00;99.90;;;;;;5413478;26;20245;-81
2024/05/04 02:48:59;;;;;;;5.80;3.10;;;12.00;99.90;;;;;;5422995;26;20262;-80
2024/05/04 02:51:24;;;;;;;3.63;3.20;;;12.00;99.90;;;;;;5448293;26;20287;-80
2024/05/04 02:53:50;;;;;;;5.23;2.80;;;12.00;99.90;;;;;;5450146;26;20284;-81
2024/05/04 02:56:15;;;;;;;5.03;3.20;;;12.00;99.90;;;;;;5450825;26;20291;-81
2024/05/04 02:58:41;;;;;;;5.50;3.30;;;12.10;99.90;;;;;;5449830;26;20864;-81
2024/05/04 03:01:13;;;;;;;9.50;2.80;;;12.10;99.90;;;;;;5451600;26;20260;-81
2024/05/04 03:03:38;;;;;;;5.13;3.03;;;12.20;99.90;;;;;;5411960;26;20242;-81
2024/05/04 03:06:04;;;;;;;4.00;3.27;;;12.20;99.90;;;;;;5446907;26;20612;-80
2024/05/04 03:08:30;;;;;;;4.57;2.80;;;12.10;99.90;;;;;;5446072;26;20295;-79
2024/05/04 03:10:56;;;;;;;6.50;2.70;;;12.00;99.90;;;;;;5447821;26;20244;-80
2024/05/04 03:13:21;;;;;;;4.50;2.53;;;12.00;99.90;;;;;;5446969;26;20766;-81
2024/05/04 03:15:47;;;;;;;5.00;2.73;;;11.90;99.90;;;;;;5446407;26;20361;-80
2024/05/04 03:18:13;;;;;;;4.47;3.40;;;11.90;99.90;;;;;;5445553;26;20306;-80
2024/05/04 03:20:38;;;;;;;6.60;2.60;;;11.80;99.90;;;;;;5451460;26;20241;-80
2024/05/04 03:23:04;;;;;;;2.80;2.60;;;11.90;99.90;;;;;;5446236;26;20266;-81
2024/05/04 03:25:29;;;;;;;4.20;2.67;;;11.90;99.90;;;;;;5413047;26;20283;-80
2024/05/04 03:27:57;;;;;;;6.77;2.87;;;11.80;99.90;;;;;;5444908;26;20270;-81
2024/05/04 03:30:23;;;;;;;4.70;3.00;;;11.70;99.90;;;;;;5412017;26;20342;-80
2024/05/04 03:32:48;;;;;;;5.03;3.27;;;11.70;99.90;;;;;;5410131;26;20330;-80
2024/05/04 03:35:14;;;;;;;4.53;2.90;;;11.70;99.90;;;;;;5446022;26;20288;-81
2024/05/04 03:37:39;;;;;;;3.43;2.80;;;11.80;99.90;;;;;;5445592;26;20286;-80
2024/05/04 03:40:05;;;;;;;6.17;2.80;;;11.80;99.90;;;;;;5447738;26;20244;-81
2024/05/04 03:42:31;;;;;;;6.63;3.07;;;11.90;99.90;;;;;;5439525;26;20350;-80
2024/05/04 03:44:57;;;;;;;6.97;3.23;;;11.90;99.90;;;;;;5421596;26;20248;-81
2024/05/04 03:47:22;;;;;;;3.67;2.97;;;11.90;99.90;;;;;;5444891;26;20321;-81
2024/05/04 03:49:48;;;;;;;3.67;2.90;;;11.80;99.90;;;;;;5445900;26;20271;-81
2024/05/04 03:52:13;;;;;;;4.77;3.10;;;11.70;99.90;;;;;;5445590;26;20759;-80
2024/05/04 03:54:39;;;;;;;8.07;3.67;;;11.70;99.90;;;;;;5447903;26;20279;-81
2024/05/04 03:57:04;;;;;;;5.80;3.53;;;11.70;99.90;;;;;;5445815;26;20244;-81
2024/05/04 03:59:30;;;;;;;5.63;3.27;;;11.70;99.90;;;;;;5410818;26;20259;-80
2024/05/04 04:01:55;;;;;;;10.17;3.70;;;11.60;99.90;;;;;;5444700;26;20341;-81
2024/05/04 04:04:21;;;;;;;4.23;3.20;;;11.60;99.90;;;;;;5410563;26;20258;-81
2024/05/04 04:06:46;;;;;;;6.33;4.17;;;11.70;99.90;;;;;;5446196;26;20348;-81
2024/05/04 04:09:12;;;;;;;6.27;3.20;;;11.60;99.90;;;;;;5410420;26;20349;-81
2024/05/04 04:11:41;;;;;;;4.23;2.90;;;11.60;99.90;;;;;;5445697;26;20259;-80
2024/05/04 04:14:06;;;;;;;4.03;2.63;;;11.60;99.90;;;;;;5444749;26;20779;-81
2024/05/04 04:16:32;;;;;;;4.93;3.07;;;11.50;99.90;;;;;;5447346;26;20445;-81
2024/05/04 04:18:57;;;;;;;3.43;2.87;;;11.50;99.90;;;;;;5445342;26;20592;-81
2024/05/04 04:21:23;;;;;;;4.80;2.80;;;11.40;99.90;;;;;;5445446;26;20336;-81
2024/05/04 04:23:48;;;;;;;4.33;2.40;;;11.50;99.90;;;;;;5445719;26;20248;-80
2024/05/04 04:26:14;;;;;;;3.73;2.93;;;11.50;99.90;;;;;;5410659;26;20844;-81
2024/05/04 04:28:39;;;;;;;3.90;3.07;;;11.40;99.90;;;;;;5443728;26;20275;-81
2024/05/04 04:31:05;;;;;;;4.97;2.70;;;11.40;99.90;;;;;;5409953;26;20753;-81
2024/05/04 04:33:31;;;;;;;4.73;3.10;;;11.40;99.90;;;;;;5438351;26;20253;-80
2024/05/04 04:35:57;;;;;;;7.83;3.40;;;11.30;99.90;;;;;;5409560;26;20322;-80
2024/05/04 04:38:22;;;;;;;6.33;2.73;;;11.30;99.90;;;;;;5443660;26;20659;-80
2024/05/04 04:40:48;;;;;;;6.33;2.63;;;11.40;99.90;;;;;;5448433;26;20343;-80
2024/05/04 04:43:13;;;;;;;6.00;2.83;;;11.50;99.90;;;;;;5444937;26;20328;-80
2024/05/04 04:45:39;;;;;;;5.47;3.20;;;11.60;99.90;;;;;;5439738;26;20244;-80
2024/05/04 04:48:05;;;;;;;4.93;2.90;;;11.50;99.90;;;;;;5444065;26;20792;-80
2024/05/04 04:50:30;;;;;;;4.97;2.27;;;11.50;99.90;;;;;;5410275;26;20246;-80
2024/05/04 04:52:56;;;;;;;6.67;3.00;;;11.50;99.90;;;;;;5445973;26;20741;-80
2024/05/04 04:55:21;;;;;;;4.57;2.50;;;11.60;99.90;;;;;;5409980;26;20233;-80
2024/05/04 04:57:47;;;;;;;3.33;3.00;;;11.50;99.90;;;;;;5445606;26;20288;-79
2024/05/04 05:00:12;;;;;;;7.83;3.10;;;11.50;99.90;;;;;;5446652;26;20560;-79
2024/05/04 05:02:38;;;;;;;5.73;2.73;;;11.50;99.90;;;;;;5446545;26;20244;-79
2024/05/04 05:05:04;;;;;;;5.73;3.10;;;11.50;99.90;;;;;;5444212;26;20841;-80
2024/05/04 05:07:29;;;;;;;5.50;2.80;;;11.60;99.90;;;;;;5447178;26;20236;-80
2024/05/04 05:09:55;;;;;;;4.27;2.90;;;11.60;99.90;;;;;;5443800;26;20560;-81
2024/05/04 05:12:21;;;;;;;5.20;2.40;;;11.60;99.90;;;;;;5446305;26;20263;-80
2024/05/04 05:14:47;;;;;;;5.97;2.80;;;11.60;99.90;;;;;;5445223;26;20244;-79
2024/05/04 05:17:12;;;;;;;7.07;3.10;;;11.60;99.90;;;;;;5444869;26;20278;-81
2024/05/04 05:19:38;;;;;;;5.20;2.77;;;11.70;99.90;;;;;;5408622;26;20728;-80
2024/05/04 05:22:03;;;;;;;8.23;2.67;;;11.70;99.90;;;;;;5445458;26;20237;-81
2024/05/04 05:24:29;;;;;;;7.80;2.83;;;11.70;99.90;;;;;;5411876;26;20257;-81
2024/05/04 05:26:54;;;;;;;5.67;2.33;;;11.80;99.90;;;;;;5447377;26;20868;-81
2024/05/04 05:29:20;;;;;;;2.60;2.13;;;11.80;99.90;;;;;;5446846;26;20579;-81
2024/05/04 05:31:45;;;;;;;2.93;2.60;;;11.80;99.90;;;;;;5446659;26;20241;-81
2024/05/04 05:34:11;;;;;;;6.27;2.33;;;11.80;99.90;;;;;;5446566;26;20240;-81
2024/05/04 05:36:42;;;;;;;2.50;2.23;;;11.80;99.90;;;;;;5446096;26;20236;-81
2024/05/04 05:39:08;;;;;;;4.20;2.63;;;11.90;99.90;;;;;;5408848;26;20276;-81
2024/05/04 05:41:33;;;;;;;5.93;2.57;;;11.90;99.90;;;;;;5443164;26;20731;-80
2024/05/04 05:43:59;;;;;;;6.67;2.80;;;12.10;99.90;;;;;;5440808;26;20368;-81
2024/05/04 05:46:24;;;;;;;4.80;2.43;;;12.10;99.90;;;;;;5445817;26;20240;-81
2024/05/04 05:48:50;;;;;;;7.57;3.70;;;12.20;99.90;;;;;;5436982;26;20732;-79
2024/05/04 05:51:16;;;;;;;5.77;2.40;;;12.20;99.90;;;;;;5445150;26;20243;-80
2024/05/04 05:53:41;;;;;;;4.60;2.27;;;12.30;99.90;;;;;;5443928;26;20634;-79
2024/05/04 05:56:07;;;;;;;5.70;2.30;;;12.30;99.90;;;;;;5416190;26;20241;-80
2024/05/04 05:58:32;;;;;;;4.37;2.40;;;12.30;99.90;;;;;;5444299;26;20249;-81
2024/05/04 06:00:58;;;;;;;7.27;2.43;;;12.30;99.90;;;;;;5412322;26;20759;-81
2024/05/04 06:03:23;;;;;;;3.77;2.07;;;12.40;99.90;;;;;;5408039;26;20544;-79
2024/05/04 06:05:49;;;;;;;4.23;2.13;;;12.40;99.90;;;;;;5425979;26;20281;-80
2024/05/04 06:08:14;;;;;;;6.83;2.50;;;12.50;99.90;;;;;;5444468;26;20250;-81
2024/05/04 06:10:40;;;;;;;5.30;2.40;;;12.50;99.90;;;;;;5449012;26;20236;-79
2024/05/04 06:13:05;;;;;;;3.53;2.27;;;12.50;99.90;;;;;;5420869;26;20610;-83
2024/05/04 06:15:31;;;;;;;7.77;3.20;;;12.60;99.90;;;;;;5412911;26;20322;-80
2024/05/04 06:17:57;;;;;;;4.47;3.53;;;12.60;99.90;;;;;;5448118;26;20240;-80
2024/05/04 06:20:22;;;;;;;4.57;2.20;;;12.80;99.90;;;;;;5447539;26;20258;-79
2024/05/04 06:22:48;;;;;;;4.00;2.40;;;13.00;99.90;;;;;;5447793;26;20376;-80
2024/05/04 06:25:13;;;;;;;4.23;2.23;;;13.00;99.90;;;;;;5412281;26;20295;-80
2024/05/04 06:27:39;;;;;;;4.77;2.30;;;13.10;99.90;;;;;;5445994;26;20249;-80
2024/05/04 06:30:06;;;;;;;7.77;2.37;;;13.30;99.90;;;;;;5412400;26;20254;-80
2024/05/04 06:32:33;;;;;;;2.97;1.97;;;13.40;99.90;;;;;;5447801;26;20277;-80
2024/05/04 06:34:58;;;;;;;13.50;3.23;;;13.50;99.90;;;;;;5449055;26;20234;-81
2024/05/04 06:37:24;;;;;;;7.17;3.00;;;13.60;99.90;;;;;;5446888;26;20424;-80
2024/05/04 06:39:49;;;;;;;3.83;2.40;;;13.60;99.90;;;;;;5412129;26;20250;-82
2024/05/04 06:42:15;;;;;;;5.03;2.20;;;13.70;99.90;;;;;;5446889;26;20250;-80
2024/05/04 06:44:40;;;;;;;6.20;2.20;;;13.70;99.90;;;;;;5406493;26;20339;-79
2024/05/04 06:47:06;;;;;;;6.07;2.87;;;13.70;99.90;;;;;;5411272;26;20718;-82
2024/05/04 06:49:31;;;;;;;6.90;2.03;;;13.80;99.90;;;;;;5410661;26;20277;-79
2024/05/04 06:51:56;;;;;;;5.60;2.10;;;13.80;99.90;;;;;;5447695;26;20309;-80
2024/05/04 06:54:22;;;;;;;4.83;2.57;;;13.80;99.90;;;;;;5412045;26;20304;-80
2024/05/04 06:56:51;;;;;;;3.90;2.20;;;13.90;99.90;;;;;;5447642;26;20243;-81
2024/05/04 06:59:16;;;;;;;6.20;1.90;;;14.00;99.90;;;;;;5448298;26;20662;-80
2024/05/04 07:01:42;;;;;;;5.03;2.07;;;14.20;99.90;;;;;;5446918;26;20707;-80
2024/05/04 07:04:09;;;;;;;3.17;2.07;;;14.40;99.90;;;;;;5411615;26;20705;-81
2024/05/04 07:06:35;;;;;;;5.20;2.00;;;14.50;99.90;;;;;;5444901;26;20251;-81
2024/05/04 07:09:00;;;;;;;8.63;2.33;;;14.50;99.90;;;;;;5412925;26;20256;-81
2024/05/04 07:11:26;;;;;;;4.37;2.10;;;14.60;99.90;;;;;;5421265;26;20350;-79
2024/05/04 07:13:52;;;;;;;7.10;2.00;;;14.70;99.90;;;;;;5446424;26;20282;-81
2024/05/04 07:16:17;;;;;;;5.50;2.03;;;14.70;99.90;;;;;;5446084;26;20235;-82
2024/05/04 07:18:43;;;;;;;2.47;1.77;;;14.70;99.90;;;;;;5446141;26;20286;-81
2024/05/04 07:21:08;;;;;;;6.37;2.10;;;14.80;99.90;;;;;;5445590;26;20280;-82
2024/05/04 07:23:34;;;;;;;3.87;1.87;;;14.90;99.90;;;;;;5410862;26;20241;-81
2024/05/04 07:26:00;;;;;;;5.57;2.20;;;14.90;99.90;;;;;;5447154;26;20718;-81
2024/05/04 07:28:25;;;;;;;3.50;2.07;;;15.00;99.90;;;;;;5411603;26;20249;-81
2024/05/04 07:30:51;;;;;;;3.93;1.87;;;15.00;99.90;;;;;;5439177;26;20326;-81
2024/05/04 07:33:16;;;;;;;5.20;1.80;;;15.10;99.90;;;;;;5411730;26;20240;-80
2024/05/04 07:35:42;;;;;;;5.50;2.23;;;15.20;99.90;;;;;;5444677;26;20785;-81
2024/05/04 07:38:15;;;;;;;4.20;1.80;;;15.20;99.90;;;;;;5446587;26;20272;-80
2024/05/04 07:40:40;;;;;;;6.13;1.90;;;15.30;99.90;;;;;;5413098;26;20354;-81
2024/05/04 07:43:06;;;;;;;3.07;1.50;;;15.30;99.90;;;;;;5447442;26;20244;-80
2024/05/04 07:45:32;;;;;;;6.50;1.50;;;15.40;99.90;;;;;;5442263;26;20232;-82
2024/05/04 07:47:57;;;;;;;2.63;1.33;;;15.40;99.90;;;;;;5436202;26;20285;-82
2024/05/04 07:50:23;;;;;;;5.63;1.80;;;15.50;99.90;;;;;;5447286;26;20317;-81
2024/05/04 07:52:55;;;;;;;5.20;1.50;;;15.50;99.90;;;;;;5447997;26;20240;-80
2024/05/04 07:55:21;;;;;;;2.70;1.40;;;15.50;99.90;;;;;;5435881;26;20237;-82
2024/05/04 07:57:47;;;;;;;7.37;1.53;;;15.50;99.90;;;;;;5415945;26;20590;-79
2024/05/04 08:00:13;;;;;;;3.83;1.60;;;15.50;99.90;;;;;;5447295;26;20267;-81
2024/05/04 08:02:38;;;;;;;4.03;1.50;;;15.70;99.90;;;;;;5449119;26;20248;-81
2024/05/04 08:05:04;;;;;;;3.73;1.40;;;15.70;99.90;;;;;;5446601;26;20252;-80
2024/05/04 08:07:30;;;;;;;1.97;1.50;;;15.80;99.90;;;;;;5410373;26;20276;-79
2024/05/04 08:09:55;;;;;;;8.83;1.63;;;15.90;99.90;;;;;;5443112;26;20245;-81
2024/05/04 08:12:21;;;;;;;4.47;1.57;;;15.90;99.90;;;;;;5447979;26;20749;-81
2024/05/04 08:14:46;;;;;;;1.87;1.37;;;16.00;99.90;;;;;;5445969;26;20831;-79
2024/05/04 08:17:12;;;;;;;3.73;1.30;;;16.00;99.90;;;;;;5447264;26;20242;-81
2024/05/04 08:19:38;;;;;;;4.53;1.40;;;16.10;99.90;;;;;;5412376;26;20285;-81
2024/05/04 08:22:03;;;;;;;5.70;1.53;;;16.10;99.90;;;;;;5444386;26;20242;-80
2024/05/04 08:24:30;;;;;;;4.63;1.80;;;16.10;99.90;;;;;;5410699;26;20245;-80
2024/05/04 08:26:56;;;;;;;7.07;1.70;;;16.10;99.90;;;;;;5445626;26;20280;-81
2024/05/04 08:29:21;;;;;;;3.23;1.60;;;16.10;99.90;;;;;;5411084;26;20293;-80
2024/05/04 08:31:47;;;;;;;3.33;1.53;;;16.20;99.90;;;;;;5446303;26;20241;-80
2024/05/04 08:34:12;;;;;;;3.73;1.70;;;16.30;99.90;;;;;;5410298;26;20246;-81
2024/05/04 08:36:38;;;;;;;6.40;2.17;;;16.20;99.90;;;;;;5438326;26;20250;-80
2024/05/04 08:39:03;;;;;;;5.80;1.87;;;16.20;99.90;;;;;;5410309;26;20244;-81
2024/05/04 08:41:29;;;;;;;5.17;1.60;;;16.30;99.90;;;;;;5444447;26;20253;-81
2024/05/04 08:43:55;;;;;;;6.10;1.27;;;16.30;99.90;;;;;;5436633;26;20292;-80
2024/05/04 08:46:24;;;;;;;3.77;1.20;;;16.40;99.90;;;;;;5440886;26;20537;-80
2024/05/04 08:48:50;;;;;;;3.90;1.47;;;16.20;99.90;;;;;;5444691;26;20333;-79
2024/05/04 08:51:18;;;;;;;4.97;1.50;;;16.20;99.90;;;;;;5450143;26;20248;-81
2024/05/04 08:53:44;;;;;;;3.53;1.60;;;16.10;99.90;;;;;;5446635;26;20245;-81
2024/05/04 08:56:13;;;;;;;2.47;1.10;;;16.10;99.90;;;;;;5448016;26;20561;-81
2024/05/04 08:58:49;;;;;;;5.27;2.07;;;16.10;99.90;;;;;;5446967;26;20433;-82
2024/05/04 09:01:15;;;;;;;8.90;2.37;;;16.20;99.90;;;;;;5441971;26;20249;-80
2024/05/04 09:03:41;;;;;;;11.00;2.97;;;16.20;99.90;;;;;;5414375;26;20285;-80
2024/05/04 09:06:10;;;;;;;6.60;2.10;;;16.20;99.90;;;;;;5447221;26;20552;-81
2024/05/04 09:08:36;;;;;;;4.20;1.27;;;16.30;99.90;;;;;;5447588;26;20295;-79
2024/05/04 09:11:02;;;;;;;3.50;1.20;;;16.30;99.90;;;;;;5449590;26;20245;-80
2024/05/04 09:13:27;;;;;;;4.77;1.10;;;16.40;99.90;;;;;;5446988;26;20259;-82
2024/05/04 09:15:58;;;;;;;3.07;1.40;;;16.40;99.90;;;;;;5445086;26;20318;-81
2024/05/04 09:18:26;;;;;;;1.53;1.07;;;16.40;99.90;;;;;;5418556;26;20242;-81
2024/05/04 09:20:52;;;;;;;2.70;1.40;;;16.50;99.90;;;;;;5454581;26;20571;-80
2024/05/04 09:23:18;;;;;;;4.93;2.10;;;16.40;99.90;;;;;;5410876;26;20261;-78
2024/05/04 09:25:44;;;;;;;4.30;1.67;;;16.50;99.90;;;;;;5445250;26;20241;-81
2024/05/04 09:28:09;;;;;;;5.23;1.73;;;16.60;99.90;;;;;;5446620;26;20275;-80
2024/05/04 09:30:35;;;;;;;6.30;1.40;;;16.60;99.90;;;;;;5444514;26;20794;-79
2024/05/04 09:33:01;;;;;;;5.63;1.50;;;16.50;99.90;;;;;;5446824;26;20362;-80
2024/05/04 09:35:28;;;;;;;4.87;1.50;;;16.60;99.90;;;;;;5429600;26;20522;-79
2024/05/04 09:38:10;;;;;;;6.50;1.80;;;16.60;99.90;;;;;;5448647;26;20235;-82
2024/05/04 09:40:37;;;;;;;6.33;1.90;;;16.70;99.90;;;;;;5408614;26;20732;-81
2024/05/04 09:43:05;;;;;;;3.17;1.40;;;16.70;99.90;;;;;;5415563;26;20248;-80
2024/05/04 09:45:32;;;;;;;3.83;1.30;;;16.70;99.90;;;;;;5458232;26;20546;-81
2024/05/04 09:48:00;;;;;;;2.27;1.60;;;16.70;99.90;;;;;;5435733;26;20243;-81
2024/05/04 09:50:26;;;;;;;2.87;1.20;;;16.70;99.90;;;;;;5431508;26;20307;-81
2024/05/04 09:52:52;;;;;;;4.57;1.40;;;16.70;99.90;;;;;;5443343;26;20688;-80
2024/05/04 09:55:17;;;;;;;2.47;1.10;;;16.70;99.90;;;;;;5447039;26;20237;-80
2024/05/04 09:57:45;;;;;;;5.50;1.93;;;16.80;99.90;;;;;;5447173;26;20297;-79
2024/05/04 10:00:12;;;;;;;3.17;1.30;;;16.80;99.90;;;;;;5433985;26;20248;-80
2024/05/04 10:02:43;;;;;;;5.47;1.40;;;16.80;99.90;;;;;;5410496;26;20231;-81
2024/05/04 10:05:11;;;;;;;7.37;1.43;;;16.90;99.90;;;;;;5408950;26;20799;-80
2024/05/04 10:07:38;;;;;;;2.87;0.97;;;16.90;99.90;;;;;;5445450;26;20350;-80
2024/05/04 10:10:03;;;;;;;2.13;1.20;;;17.00;99.30;;;;;;5447029;26;20237;-81
2024/05/04 10:12:30;;;;;;;3.30;1.40;;;17.10;98.80;;;;;;5448620;26;20750;-81
2024/05/04 10:15:01;;;;;;;4.67;2.63;;;17.00;99.70;;;;;;5443304;26;20731;-82
2024/05/04 10:17:28;;;;;;;2.73;0.90;;;17.00;99.90;;;;;;5407457;26;20287;-80
2024/05/04 10:20:10;;;;;;;7.13;1.60;;;17.00;99.60;;;;;;5444820;26;20251;-80
2024/05/04 10:22:37;;;;;;;4.43;2.20;;;17.00;99.30;;;;;;5444038;26;20316;-81
2024/05/04 10:25:03;;;;;;;4.67;1.50;;;17.00;99.90;;;;;;5446677;26;20247;-82
2024/05/04 10:27:29;;;;;;;4.90;2.30;;;16.90;99.60;;;;;;5452340;26;20293;-81
2024/05/04 10:29:55;;;;;;;3.03;1.37;;;17.00;99.80;;;;;;5448431;26;20760;-80
2024/05/04 10:32:21;;;;;;;5.17;1.67;;;17.10;99.10;;;;;;5444243;26;20596;-82
2024/05/04 10:34:47;;;;;;;4.73;1.20;;;17.00;99.30;;;;;;5446481;26;20238;-81
2024/05/04 10:37:13;;;;;;;4.20;1.63;;;17.00;99.30;;;;;;5449365;26;20731;-80
2024/05/04 10:39:40;;;;;;;5.93;1.97;;;17.00;99.20;;;;;;5445919;26;20243;-81
2024/05/04 10:42:06;;;;;;;3.23;2.07;;;17.00;99.00;;;;;;5445802;26;20235;-80
2024/05/04 10:44:36;;;;;;;5.53;2.50;;;17.10;98.60;;;;;;5440235;26;20295;-82
2024/05/04 10:47:02;;;;;;;3.43;1.33;;;17.10;99.00;;;;;;5443687;26;20296;-80
2024/05/04 10:49:28;;;;;;;6.70;1.57;;;17.00;98.30;;;;;;5441770;26;20741;-81
2024/05/04 10:52:01;;;;;;;3.70;1.30;;;17.10;98.10;;;;;;5407840;26;20280;-81
2024/05/04 10:54:27;;;;;;;3.67;1.43;;;17.00;98.20;;;;;;5442986;26;20686;-81
2024/05/04 10:56:53;;;;;;;3.53;1.37;;;17.00;98.40;;;;;;5447235;26;20355;-81
2024/05/04 10:59:22;;;;;;;3.47;1.27;;;17.10;98.40;;;;;;5448503;26;20620;-81
2024/05/04 11:01:50;;;;;;;4.43;1.53;;;17.10;97.90;;;;;;5448051;26;20306;-80
2024/05/04 11:04:17;;;;;;;4.10;1.30;;;17.20;97.90;;;;;;5446173;26;20266;-80
2024/05/04 11:06:50;;;;;;;2.40;1.23;;;17.30;97.10;;;;;;5448372;26;20255;-82
2024/05/04 11:09:16;;;;;;;2.27;1.07;;;17.30;97.30;;;;;;5411198;26;20296;-81
2024/05/04 11:11:41;;;;;;;3.53;1.13;;;17.20;96.50;;;;;;5425473;26;20255;-81
2024/05/04 11:14:07;;;;;;;8.03;1.70;;;17.20;96.40;;;;;;5450193;26;20243;-80
2024/05/04 11:16:33;;;;;;;6.33;1.40;;;17.20;96.20;;;;;;5449611;26;20227;-81
2024/05/04 11:19:04;;;;;;;5.10;1.57;;;17.10;96.40;;;;;;5464878;26;20246;-81
2024/05/04 11:21:36;;;;;;;4.47;1.50;;;17.10;96.60;;;;;;5472863;26;20245;-81
2024/05/04 11:24:02;;;;;;;4.67;1.20;;;17.20;96.90;;;;;;5472485;26;20238;-80
2024/05/04 11:26:28;;;;;;;4.10;1.17;;;17.20;96.70;;;;;;5471823;26;20247;-80
2024/05/04 11:28:54;;;;;;;2.93;1.20;;;17.20;96.80;;;;;;5472031;26;20227;-81
2024/05/04 11:31:23;;;;;;;8.40;1.93;;;17.30;96.20;;;;;;5472154;26;20250;-80
2024/05/04 11:33:48;;;;;;;3.03;1.30;;;17.30;97.00;;;;;;5435901;26;20263;-81
2024/05/04 11:36:14;;;;;;;4.67;1.47;;;17.30;96.30;;;;;;5440909;26;20242;-82
2024/05/04 11:38:40;;;;;;;5.27;1.10;;;17.40;96.10;;;;;;5434661;26;20290;-80
2024/05/04 11:41:05;;;;;;;9.93;1.67;;;17.40;96.00;;;;;;5441749;26;20654;-80
2024/05/04 11:43:31;;;;;;;4.93;1.73;;;17.40;96.10;;;;;;5464955;26;20274;-81
2024/05/04 11:45:56;;;;;;;7.73;1.93;;;17.60;95.60;;;;;;5466525;26;20239;-80
2024/05/04 11:48:22;;;;;;;5.40;1.20;;;17.70;95.50;;;;;;5456929;26;20311;-81
2024/05/04 11:50:47;;;;;;;3.30;1.43;;;17.60;95.60;;;;;;5455491;26;20240;-81
2024/05/04 11:53:13;;;;;;;3.67;2.17;;;17.60;96.30;;;;;;5453290;26;20278;-82
2024/05/04 11:55:42;;;;;;;3.83;2.00;;;17.70;96.20;;;;;;5453274;26;20743;-81
2024/05/04 11:58:08;;;;;;;3.43;1.33;;;17.80;96.20;;;;;;5446750;26;20986;-80
2024/05/04 12:00:34;;;;;;;4.87;1.57;;;17.90;95.90;;;;;;5432846;26;20240;-81
2024/05/04 12:03:00;;;;;;;2.80;1.13;;;18.10;95.10;;;;;;5447712;26;20243;-81
2024/05/04 12:05:25;;;;;;;2.30;1.10;;;18.30;94.60;;;;;;5448248;26;20259;-81
2024/05/04 12:07:51;;;;;;;2.73;1.20;;;18.20;94.60;;;;;;5410130;26;20288;-81
2024/05/04 12:10:16;;;;;;;2.33;0.97;;;18.20;94.00;;;;;;5444857;26;20244;-80
2024/05/04 12:12:42;;;;;;;4.10;1.60;;;18.30;93.90;;;;;;5410482;26;20253;-81
2024/05/04 12:15:07;;;;;;;3.90;1.30;;;18.40;94.30;;;;;;5445167;26;20653;-80
2024/05/04 12:17:35;;;;;;;3.17;1.47;;;18.40;94.00;;;;;;5444861;26;20654;-79
2024/05/04 12:20:02;;;;;;;2.73;1.17;;;18.30;93.80;;;;;;5444928;26;20286;-81
2024/05/04 12:22:28;;;;;;;1.53;1.20;;;18.40;92.70;;;;;;5411430;26;20272;-79
2024/05/04 12:24:53;;;;;;;5.33;1.13;;;18.50;92.40;;;;;;5444080;26;20292;-82
2024/05/04 12:27:19;;;;;;;4.07;1.93;;;18.60;91.40;;;;;;5409546;26;20288;-81
2024/05/04 12:29:44;;;;;;;5.03;1.80;;;18.70;90.80;;;;;;5445665;26;20325;-80
2024/05/04 12:32:10;;;;;;;2.87;1.37;;;18.70;91.70;;;;;;5409714;26;20283;-80
2024/05/04 12:34:36;;;;;;;3.73;1.20;;;18.60;92.40;;;;;;5409352;26;20233;-83
2024/05/04 12:37:01;;;;;;;9.30;1.80;;;18.50;92.40;;;;;;5444222;26;20239;-83
2024/05/04 12:39:27;;;;;;;4.13;1.60;;;18.50;92.60;;;;;;5411088;26;20245;-81